createdAt,value
2022-10-22T00:00:47.895Z,-9940.56
2022-10-22T00:01:50.074Z,-9940.56
2022-10-22T00:02:52.302Z,-10266.53
2022-10-22T00:03:55.013Z,-9615.75
2022-10-22T00:04:57.324Z,-9615.19
2022-10-22T00:05:59.495Z,-8963.47
2022-10-22T00:07:01.614Z,-8637.22
2022-10-22T00:08:03.872Z,-7985.84
2022-10-22T00:09:06.030Z,-9288.47
2022-10-22T00:10:08.768Z,-8963.41
2022-10-22T00:11:15.021Z,-9617.84
2022-10-22T00:12:18.544Z,-7659.03
2022-10-22T00:13:21.107Z,-7659.34
2022-10-22T00:14:23.309Z,-7006.25
2022-10-22T00:15:25.609Z,-7332.09
2022-10-22T00:16:27.787Z,-8634.16
2022-10-22T00:17:29.915Z,-8308.34
2022-10-22T00:18:32.135Z,-8308.50
2022-10-22T00:19:34.296Z,-8633.72
2022-10-22T00:20:36.762Z,-8959.78
2022-10-22T00:21:39.186Z,-8633.28
2022-10-22T00:22:41.401Z,-8308.16
2022-10-22T00:23:43.792Z,-7982.41
2022-10-22T00:24:45.878Z,-7981.94
2022-10-22T00:25:48.047Z,-7329.78
2022-10-22T00:26:50.310Z,-7654.75
2022-10-22T00:27:52.610Z,-6677.53
2022-10-22T00:28:54.720Z,-6351.34
2022-10-22T00:29:56.856Z,-7001.94
2022-10-22T00:31:00.543Z,-6026.03
2022-10-22T00:32:03.656Z,-6025.31
2022-10-22T00:33:05.810Z,-5372.75
2022-10-22T00:34:07.943Z,-5373.22
2022-10-22T00:35:10.111Z,-6024.25
2022-10-22T00:36:12.769Z,-6674.94
2022-10-22T00:37:14.997Z,-5372.13
2022-10-22T00:38:17.243Z,-5372.00
2022-10-22T00:39:23.019Z,-5700.59
2022-10-22T00:40:25.560Z,-5046.75
2022-10-22T00:41:27.749Z,-6349.19
2022-10-22T00:42:30.470Z,-7000.31
2022-10-22T00:43:32.670Z,-6675.03
2022-10-22T00:44:59.397Z,-7006.25
2022-10-22T00:46:01.510Z,-5698.25
2022-10-22T00:47:03.679Z,-5698.19
2022-10-22T00:48:05.946Z,-5698.38
2022-10-22T00:49:08.091Z,-5372.63
2022-10-22T00:50:17.547Z,-6027.88
2022-10-22T00:51:21.719Z,-4723.19
2022-10-22T00:52:24.508Z,-3744.09
2022-10-22T00:53:29.593Z,-4723.97
2022-10-22T00:54:31.777Z,-3092.16
2022-10-22T00:55:34.331Z,-4068.75
2022-10-22T00:56:37.436Z,-5044.75
2022-10-22T00:57:40.405Z,-6021.53
2022-10-22T00:58:47.018Z,-7652.19
2022-10-22T00:59:49.911Z,-7323.66
2022-10-22T01:00:52.195Z,-7648.88
2022-10-22T01:01:54.558Z,-7975.19
2022-10-22T01:02:58.000Z,-8952.31
2022-10-22T01:04:00.853Z,-9604.13
2022-10-22T01:05:03.915Z,-8952.50
2022-10-22T01:06:06.365Z,-8301.66
2022-10-22T01:07:16.690Z,-8630.66
2022-10-22T01:08:25.063Z,-9280.88
2022-10-22T01:09:39.132Z,-8956.56
2022-10-22T01:11:01.434Z,-7322.88
2022-10-22T01:12:03.532Z,-6346.53
2022-10-22T01:13:24.051Z,-6346.38
2022-10-22T01:14:44.041Z,-7001.78
2022-10-22T01:16:00.351Z,-7000.69
2022-10-22T01:17:23.282Z,-6675.38
2022-10-22T01:18:54.830Z,-5697.47
2022-10-22T01:20:02.972Z,-4391.88
2022-10-22T01:21:24.943Z,-6023.44
2022-10-22T01:22:42.479Z,-6023.19
2022-10-22T01:23:47.599Z,-6674.38
2022-10-22T01:25:14.584Z,-7000.97
2022-10-22T01:26:39.657Z,-5697.53
2022-10-22T01:27:57.263Z,-5041.91
2022-10-22T01:29:10.754Z,-6021.31
2022-10-22T01:30:14.681Z,-6669.94
2022-10-22T01:31:18.152Z,-7643.94
2022-10-22T01:32:25.740Z,-7972.25
2022-10-22T01:33:30.402Z,-5691.88
2022-10-22T01:34:34.441Z,-6667.88
2022-10-22T01:35:43.965Z,-6994.53
2022-10-22T01:36:48.024Z,-6341.84
2022-10-22T01:37:54.361Z,-8295.03
2022-10-22T01:38:58.855Z,-7641.56
2022-10-22T01:40:02.310Z,-8943.16
2022-10-22T01:41:04.692Z,-8940.91
2022-10-22T01:42:06.866Z,-9266.16
2022-10-22T01:43:11.551Z,-10244.31
2022-10-22T01:44:25.160Z,-10898.75
2022-10-22T01:45:30.708Z,-9921.69
2022-10-22T01:46:32.971Z,-8293.25
2022-10-22T01:47:57.500Z,-9273.94
2022-10-22T01:49:17.446Z,-7648.16
2022-10-22T01:50:31.560Z,-7972.50
2022-10-22T01:51:53.198Z,-9274.38
2022-10-22T01:53:01.361Z,-9923.94
2022-10-22T01:54:35.790Z,-9272.72
2022-10-22T01:56:05.619Z,-8949.00
2022-10-22T01:57:20.742Z,-11549.75
2022-10-22T01:58:49.701Z,-12200.50
2022-10-22T02:00:12.716Z,-12203.50
2022-10-22T02:01:47.211Z,-12202.12
2022-10-22T02:02:57.214Z,-12202.69
2022-10-22T02:04:08.619Z,-12854.84
2022-10-22T02:05:15.669Z,-12204.69
2022-10-22T02:06:23.225Z,-12204.69
2022-10-22T02:07:31.118Z,-11228.00
2022-10-22T02:08:35.784Z,-11226.47
2022-10-22T02:09:40.347Z,-10576.38
2022-10-22T02:10:45.123Z,-9926.19
2022-10-22T02:11:48.934Z,-9599.84
2022-10-22T02:12:55.390Z,-10252.47
2022-10-22T02:14:03.617Z,-10577.00
2022-10-22T02:15:06.698Z,-9272.34
2022-10-22T02:16:13.374Z,-10576.38
2022-10-22T02:17:19.511Z,-10249.94
2022-10-22T02:18:25.951Z,-9598.91
2022-10-22T02:19:36.943Z,-9925.13
2022-10-22T02:20:42.209Z,-9273.28
2022-10-22T02:21:44.859Z,-8619.66
2022-10-22T02:22:47.338Z,-8294.63
2022-10-22T02:23:50.006Z,-8293.59
2022-10-22T02:24:52.183Z,-8293.50
2022-10-22T02:26:03.539Z,-8947.56
2022-10-22T02:27:18.263Z,-10574.75
2022-10-22T02:28:29.193Z,-10900.22
2022-10-22T02:29:39.886Z,-10902.34
2022-10-22T02:30:47.487Z,-11226.38
2022-10-22T02:31:52.262Z,-10901.72
2022-10-22T02:32:59.645Z,-12203.97
2022-10-22T02:34:08.735Z,-11552.97
2022-10-22T02:35:15.019Z,-12529.47
2022-10-22T02:36:18.658Z,-11877.44
2022-10-22T02:37:21.790Z,-11224.53
2022-10-22T02:38:26.464Z,-12203.06
2022-10-22T02:39:29.959Z,-10901.72
2022-10-22T02:40:32.681Z,-10575.56
2022-10-22T02:41:35.326Z,-10900.56
2022-10-22T02:42:40.747Z,-11554.97
2022-10-22T02:43:45.333Z,-11879.38
2022-10-22T02:44:47.451Z,-11551.31
2022-10-22T02:45:49.815Z,-11551.97
2022-10-22T02:46:52.063Z,-11552.28
2022-10-22T02:47:54.225Z,-11227.22
2022-10-22T02:48:56.373Z,-11553.41
2022-10-22T02:49:58.757Z,-12206.19
2022-10-22T02:51:00.874Z,-12206.44
2022-10-22T02:52:02.997Z,-12856.19
2022-10-22T02:53:05.171Z,-13505.81
2022-10-22T02:54:07.529Z,-12532.56
2022-10-22T02:55:09.755Z,-11557.19
2022-10-22T02:56:12.562Z,-11231.56
2022-10-22T02:57:14.778Z,-11233.31
2022-10-22T02:58:17.110Z,-11884.38
2022-10-22T02:59:19.319Z,-11233.63
2022-10-22T03:00:21.833Z,-10583.72
2022-10-22T03:01:24.003Z,-9931.47
2022-10-22T03:02:26.163Z,-9930.78
2022-10-22T03:03:28.307Z,-9606.22
2022-10-22T03:04:30.500Z,-8954.75
2022-10-22T03:05:32.654Z,-9279.56
2022-10-22T03:06:34.916Z,-9280.13
2022-10-22T03:07:37.100Z,-10905.63
2022-10-22T03:08:39.287Z,-11554.28
2022-10-22T03:09:41.507Z,-13831.66
2022-10-22T03:10:43.842Z,-13833.59
2022-10-22T03:11:46.974Z,-12532.09
2022-10-22T03:12:49.147Z,-12207.47
2022-10-22T03:13:51.376Z,-12532.44
2022-10-22T03:14:53.509Z,-12857.53
2022-10-22T03:15:55.624Z,-12532.56
2022-10-22T03:16:57.762Z,-12206.78
2022-10-22T03:17:59.881Z,-11882.13
2022-10-22T03:19:02.044Z,-11557.06
2022-10-22T03:20:04.439Z,-10581.25
2022-10-22T03:21:14.919Z,-11887.13
2022-10-22T03:22:22.011Z,-11561.41
2022-10-22T03:23:24.189Z,-10581.34
2022-10-22T03:24:31.055Z,-10585.06
2022-10-22T03:25:34.590Z,-10907.31
2022-10-22T03:26:38.747Z,-10258.69
2022-10-22T03:27:42.284Z,-9607.75
2022-10-22T03:28:47.854Z,-10583.09
2022-10-22T03:29:52.530Z,-9933.94
2022-10-22T03:30:54.653Z,-8302.91
2022-10-22T03:31:56.815Z,-8302.56
2022-10-22T03:32:59.032Z,-9276.97
2022-10-22T03:34:01.200Z,-11227.88
2022-10-22T03:35:04.106Z,-11228.75
2022-10-22T03:36:09.327Z,-11229.19
2022-10-22T03:37:11.647Z,-11230.03
2022-10-22T03:38:14.866Z,-12532.94
2022-10-22T03:39:19.861Z,-12535.19
2022-10-22T03:40:22.380Z,-11230.25
2022-10-22T03:41:24.594Z,-10904.47
2022-10-22T03:42:26.991Z,-12204.91
2022-10-22T03:43:29.294Z,-11880.75
2022-10-22T03:44:32.477Z,-11557.41
2022-10-22T03:45:34.616Z,-11556.53
2022-10-22T03:46:36.826Z,-11556.06
2022-10-22T03:47:39.279Z,-11880.41
2022-10-22T03:48:41.658Z,-11557.41
2022-10-22T03:49:43.810Z,-11882.34
2022-10-22T03:50:46.070Z,-11557.84
2022-10-22T03:51:48.249Z,-10905.84
2022-10-22T03:52:50.399Z,-10580.94
2022-10-22T03:53:52.498Z,-10580.72
2022-10-22T03:54:54.781Z,-11231.69
2022-10-22T03:55:56.933Z,-11558.97
2022-10-22T03:56:59.096Z,-10582.78
2022-10-22T03:58:01.308Z,-9606.34
2022-10-22T03:59:04.048Z,-9931.56
2022-10-22T04:00:07.035Z,-9933.03
2022-10-22T04:01:11.863Z,-9608.72
2022-10-22T04:02:14.460Z,-8954.03
2022-10-22T04:03:16.628Z,-9279.22
2022-10-22T04:04:18.742Z,-9929.41
2022-10-22T04:05:20.908Z,-9929.63
2022-10-22T04:06:23.364Z,-9929.31
2022-10-22T04:07:25.564Z,-10254.06
2022-10-22T04:08:27.704Z,-9602.81
2022-10-22T04:09:33.601Z,-11235.69
2022-10-22T04:10:35.872Z,-10254.78
2022-10-22T04:11:37.987Z,-9929.81
2022-10-22T04:12:40.071Z,-9604.13
2022-10-22T04:13:43.006Z,-9605.94
2022-10-22T04:14:45.106Z,-9606.13
2022-10-22T04:15:47.261Z,-8955.84
2022-10-22T04:16:49.937Z,-8305.38
2022-10-22T04:17:52.259Z,-7979.78
2022-10-22T04:18:54.363Z,-7654.25
2022-10-22T04:19:56.466Z,-7654.25
2022-10-22T04:20:58.571Z,-7979.28
2022-10-22T04:22:01.409Z,-7654.75
2022-10-22T04:23:03.549Z,-7652.53
2022-10-22T04:24:05.939Z,-8302.91
2022-10-22T04:25:08.357Z,-8303.25
2022-10-22T04:26:10.579Z,-7325.94
2022-10-22T04:27:12.691Z,-6999.44
2022-10-22T04:28:14.867Z,-6347.34
2022-10-22T04:29:17.018Z,-6346.44
2022-10-22T04:30:19.145Z,-6346.09
2022-10-22T04:31:23.979Z,-8301.56
2022-10-22T04:32:26.926Z,-8299.53
2022-10-22T04:33:29.052Z,-7321.19
2022-10-22T04:34:31.376Z,-7645.78
2022-10-22T04:35:33.508Z,-6993.94
2022-10-22T04:36:35.669Z,-6342.66
2022-10-22T04:37:37.931Z,-6341.84
2022-10-22T04:38:41.481Z,-6342.81
2022-10-22T04:39:43.622Z,-5690.22
2022-10-22T04:40:45.701Z,-5364.22
2022-10-22T04:41:47.804Z,-5689.09
2022-10-22T04:42:49.961Z,-5038.34
2022-10-22T04:43:53.850Z,-6015.22
2022-10-22T04:44:56.079Z,-5362.38
2022-10-22T04:46:00.513Z,-6340.47
2022-10-22T04:47:02.722Z,-5362.06
2022-10-22T04:48:05.270Z,-5362.25
2022-10-22T04:49:07.422Z,-4711.16
2022-10-22T04:50:09.685Z,-4385.63
2022-10-22T04:51:15.697Z,-5037.88
2022-10-22T04:52:17.831Z,-3409.22
2022-10-22T04:53:19.967Z,-2758.13
2022-10-22T04:54:22.344Z,-2758.06
2022-10-22T04:55:24.536Z,-2432.28
2022-10-22T04:56:30.769Z,-3083.91
2022-10-22T04:57:32.949Z,-3082.41
2022-10-22T04:58:35.150Z,-3732.56
2022-10-22T04:59:37.336Z,-4383.00
2022-10-22T05:00:39.531Z,-5358.09
2022-10-22T05:01:44.351Z,-6336.19
2022-10-22T05:02:50.762Z,-6987.25
2022-10-22T05:03:55.276Z,-6335.63
2022-10-22T05:04:57.372Z,-5357.81
2022-10-22T05:06:01.774Z,-6335.78
2022-10-22T05:07:03.973Z,-6659.22
2022-10-22T05:08:06.082Z,-8933.25
2022-10-22T05:09:12.561Z,-10888.50
2022-10-22T05:10:14.825Z,-9585.47
2022-10-22T05:11:22.197Z,-10564.84
2022-10-22T05:12:24.366Z,-9587.00
2022-10-22T05:13:26.514Z,-9262.53
2022-10-22T05:14:28.633Z,-8937.75
2022-10-22T05:15:30.725Z,-8614.00
2022-10-22T05:16:34.051Z,-8941.25
2022-10-22T05:17:37.530Z,-8290.63
2022-10-22T05:18:41.773Z,-8941.16
2022-10-22T05:19:43.865Z,-7962.38
2022-10-22T05:20:45.998Z,-8287.06
2022-10-22T05:21:48.167Z,-7312.75
2022-10-22T05:22:50.291Z,-6987.63
2022-10-22T05:23:54.834Z,-7640.59
2022-10-22T05:24:57.055Z,-6337.16
2022-10-22T05:26:05.378Z,-7641.72
2022-10-22T05:27:07.538Z,-7637.25
2022-10-22T05:28:09.733Z,-7963.28
2022-10-22T05:29:11.843Z,-8614.16
2022-10-22T05:30:13.994Z,-8939.09
2022-10-22T05:31:17.841Z,-8940.91
2022-10-22T05:32:20.021Z,-8939.56
2022-10-22T05:33:24.130Z,-8940.38
2022-10-22T05:34:26.407Z,-8615.03
2022-10-22T05:35:28.597Z,-8939.72
2022-10-22T05:36:30.739Z,-8939.09
2022-10-22T05:37:32.863Z,-8938.91
2022-10-22T05:38:35.696Z,-8940.44
2022-10-22T05:39:40.212Z,-7963.72
2022-10-22T05:40:42.436Z,-7313.97
2022-10-22T05:41:44.578Z,-6988.31
2022-10-22T05:42:46.772Z,-6663.16
2022-10-22T05:43:49.649Z,-6338.59
2022-10-22T05:44:51.749Z,-6337.56
2022-10-22T05:45:53.881Z,-7312.59
2022-10-22T05:46:55.981Z,-7962.88
2022-10-22T05:47:58.095Z,-7962.38
2022-10-22T05:49:03.262Z,-8939.81
2022-10-22T05:50:05.871Z,-8938.19
2022-10-22T05:51:11.018Z,-10566.38
2022-10-22T05:52:13.127Z,-9913.06
2022-10-22T05:53:15.288Z,-11212.69
2022-10-22T05:54:19.591Z,-11541.19
2022-10-22T05:55:21.774Z,-10888.38
2022-10-22T05:56:24.822Z,-10239.59
2022-10-22T05:57:26.933Z,-9588.63
2022-10-22T05:58:29.171Z,-8938.09
2022-10-22T05:59:31.355Z,-8613.28
2022-10-22T06:00:34.718Z,-8288.25
2022-10-22T06:01:38.465Z,-8612.25
2022-10-22T06:02:40.827Z,-9262.63
2022-10-22T06:03:44.381Z,-10239.50
2022-10-22T06:04:47.663Z,-11540.41
2022-10-22T06:05:49.779Z,-10563.28
2022-10-22T06:06:53.497Z,-10891.56
2022-10-22T06:07:57.295Z,-9590.03
2022-10-22T06:09:13.514Z,-10893.66
2022-10-22T06:10:18.374Z,-9592.16
2022-10-22T06:11:22.705Z,-9266.63
2022-10-22T06:12:25.537Z,-9264.84
2022-10-22T06:13:27.663Z,-8289.63
2022-10-22T06:14:32.200Z,-7638.78
2022-10-22T06:15:34.356Z,-7638.69
2022-10-22T06:16:36.503Z,-8938.91
2022-10-22T06:17:38.618Z,-9589.94
2022-10-22T06:18:41.424Z,-10566.38
2022-10-22T06:19:43.550Z,-10566.09
2022-10-22T06:20:45.759Z,-10891.56
2022-10-22T06:21:48.607Z,-11868.25
2022-10-22T06:22:50.726Z,-11868.94
2022-10-22T06:23:52.847Z,-11220.06
2022-10-22T06:24:54.945Z,-11219.22
2022-10-22T06:25:58.847Z,-10571.84
2022-10-22T06:27:00.999Z,-10894.72
2022-10-22T06:28:03.210Z,-10895.06
2022-10-22T06:29:05.609Z,-11546.19
2022-10-22T06:30:08.543Z,-11871.88
2022-10-22T06:31:10.813Z,-12521.75
2022-10-22T06:32:13.539Z,-12197.81
2022-10-22T06:33:16.073Z,-11547.31
2022-10-22T06:34:19.016Z,-11548.75
2022-10-22T06:35:21.236Z,-11223.53
2022-10-22T06:36:24.347Z,-11877.56
2022-10-22T06:37:26.534Z,-11875.06
2022-10-22T06:38:28.655Z,-11875.97
2022-10-22T06:39:30.902Z,-11877.78
2022-10-22T06:40:33.915Z,-13182.44
2022-10-22T06:41:36.284Z,-13834.50
2022-10-22T06:42:38.717Z,-14161.88
2022-10-22T06:43:45.181Z,-14492.84
2022-10-22T06:44:47.303Z,-15146.94
2022-10-22T06:45:49.567Z,-16125.78
2022-10-22T06:46:52.979Z,-15482.47
2022-10-22T06:47:55.809Z,-16462.16
2022-10-22T06:49:03.105Z,-17454.22
2022-10-22T06:50:05.743Z,-10934.50
2022-10-22T06:51:10.478Z,-17463.88
2022-10-22T06:52:12.826Z,-16814.22
2022-10-22T06:53:14.962Z,-15515.09
2022-10-22T06:54:17.209Z,-10297.84
2022-10-22T06:55:19.355Z,-5726.19
2022-10-22T06:56:24.273Z,-9000.69
2022-10-22T06:57:26.420Z,-1804.31
2022-10-22T06:58:28.551Z,-13906.19
2022-10-22T06:59:30.874Z,-10971.16
2022-10-22T07:01:40.982Z,-13271.78
2022-10-22T07:02:43.467Z,-10333.38
2022-10-22T07:03:46.096Z,8695.75
2022-10-22T07:04:48.271Z,16599.88
2022-10-22T07:05:50.438Z,34103.91
2022-10-22T07:06:55.034Z,30155.06
2022-10-22T07:07:57.128Z,30165.31
2022-10-22T07:09:00.612Z,85445.63
2022-10-22T07:10:02.865Z,94594.31
2022-10-22T07:11:07.718Z,98062.06
2022-10-22T07:12:09.785Z,113233.53
2022-10-22T07:13:11.922Z,150134.41
2022-10-22T07:14:14.667Z,150344.06
2022-10-22T07:15:16.782Z,150397.75
2022-10-22T07:16:19.262Z,150507.47
2022-10-22T07:17:21.370Z,150534.31
2022-10-22T07:18:23.485Z,150529.44
2022-10-22T07:19:25.638Z,150455.06
2022-10-22T07:20:27.738Z,150373.31
2022-10-22T07:21:30.927Z,150451.41
2022-10-22T07:22:33.277Z,150466.03
2022-10-22T07:23:35.814Z,150363.56
2022-10-22T07:24:37.939Z,150331.88
2022-10-22T07:25:41.317Z,150248.97
2022-10-22T07:26:43.469Z,150168.53
2022-10-22T07:27:45.605Z,150145.38
2022-10-22T07:28:48.074Z,150102.75
2022-10-22T07:29:50.186Z,150049.13
2022-10-22T07:30:52.318Z,149993.13
2022-10-22T07:31:54.502Z,149963.84
2022-10-22T07:32:56.623Z,149912.69
2022-10-22T07:33:58.793Z,149902.94
2022-10-22T07:35:01.149Z,149885.88
2022-10-22T07:36:05.693Z,149851.78
2022-10-22T07:37:07.811Z,128072.31
2022-10-22T07:38:09.979Z,114544.00
2022-10-22T07:39:12.117Z,107479.56
2022-10-22T07:40:14.311Z,112546.94
2022-10-22T07:41:17.496Z,112918.72
2022-10-22T07:42:19.734Z,109557.97
2022-10-22T07:43:22.069Z,112964.19
2022-10-22T07:44:24.157Z,125503.28
2022-10-22T07:45:26.359Z,136111.09
2022-10-22T07:46:28.579Z,150090.56
2022-10-22T07:47:30.701Z,150146.59
2022-10-22T07:48:32.825Z,150201.47
2022-10-22T07:49:34.929Z,150200.25
2022-10-22T07:50:37.239Z,150358.72
2022-10-22T07:51:39.585Z,150473.34
2022-10-22T07:52:42.089Z,150548.97
2022-10-22T07:53:44.459Z,150529.44
2022-10-22T07:54:46.559Z,150674.59
2022-10-22T07:55:50.353Z,150744.22
2022-10-22T07:56:52.445Z,150741.69
2022-10-22T07:57:54.603Z,150788.13
2022-10-22T07:58:56.823Z,150777.16
2022-10-22T07:59:59.486Z,150709.97
2022-10-22T08:01:02.671Z,150725.88
2022-10-22T08:02:04.819Z,150624.63
2022-10-22T08:03:06.905Z,150597.78
2022-10-22T08:04:09.831Z,150614.88
2022-10-22T08:05:13.362Z,150609.94
2022-10-22T08:06:15.822Z,150484.34
2022-10-22T08:07:18.798Z,150527.00
2022-10-22T08:08:21.730Z,150495.28
2022-10-22T08:09:23.982Z,150405.06
2022-10-22T08:10:26.150Z,150334.31
2022-10-22T08:11:28.395Z,150331.88
2022-10-22T08:12:30.638Z,150328.22
2022-10-22T08:13:32.926Z,150195.38
2022-10-22T08:14:35.098Z,150203.91
2022-10-22T08:15:37.283Z,150270.94
2022-10-22T08:16:39.434Z,150348.91
2022-10-22T08:17:41.705Z,150425.81
2022-10-22T08:18:44.310Z,150436.75
2022-10-22T08:19:46.397Z,150379.44
2022-10-22T08:20:48.537Z,150424.59
2022-10-22T08:21:50.642Z,150480.63
2022-10-22T08:22:52.786Z,150572.16
2022-10-22T08:23:55.007Z,150658.78
2022-10-22T08:24:57.159Z,150670.94
2022-10-22T08:26:00.560Z,150783.25
2022-10-22T08:27:02.737Z,150763.72
2022-10-22T08:28:05.038Z,150805.19
2022-10-22T08:29:07.788Z,150783.25
2022-10-22T08:30:10.666Z,150768.59
2022-10-22T08:31:12.928Z,150822.31
2022-10-22T08:32:15.218Z,150780.81
2022-10-22T08:33:17.414Z,150683.19
2022-10-22T08:34:20.286Z,150578.25
2022-10-22T08:35:22.494Z,150666.06
2022-10-22T08:36:24.663Z,150611.16
2022-10-22T08:37:27.546Z,150578.25
2022-10-22T08:38:31.427Z,150529.44
2022-10-22T08:39:33.589Z,150436.75
2022-10-22T08:40:40.337Z,150509.91
2022-10-22T08:42:24.993Z,150442.84
2022-10-22T08:44:04.474Z,150370.88
2022-10-22T08:45:22.952Z,150314.78
2022-10-22T08:46:33.772Z,150413.56
2022-10-22T08:47:35.763Z,150380.66
2022-10-22T08:48:53.845Z,150346.50
2022-10-22T08:49:57.142Z,150392.88
2022-10-22T08:50:59.574Z,150335.53
2022-10-22T08:52:02.146Z,150316.00
2022-10-22T08:53:08.265Z,150489.19
2022-10-22T08:54:33.459Z,150673.38
2022-10-22T08:55:37.654Z,150624.63
2022-10-22T08:56:44.393Z,150780.81
2022-10-22T08:57:58.458Z,150819.88
2022-10-22T08:59:10.356Z,150897.97
2022-10-22T09:00:34.502Z,150806.41
2022-10-22T09:01:45.594Z,150692.91
2022-10-22T09:03:15.733Z,150803.97
2022-10-22T09:04:30.898Z,150861.34
2022-10-22T09:05:47.207Z,150727.09
2022-10-22T09:06:52.088Z,150830.84
2022-10-22T09:07:56.030Z,151005.41
2022-10-22T09:09:01.117Z,151110.50
2022-10-22T09:10:04.034Z,151093.38
2022-10-22T09:11:09.298Z,151114.16
2022-10-22T09:12:20.165Z,151172.78
2022-10-22T09:13:24.009Z,151049.38
2022-10-22T09:14:26.631Z,150946.84
2022-10-22T09:15:31.340Z,150839.38
2022-10-22T09:16:36.183Z,150992.00
2022-10-22T09:17:58.760Z,150981.03
2022-10-22T09:19:30.947Z,151161.75
2022-10-22T09:20:41.861Z,151051.81
2022-10-22T09:21:50.768Z,151291.28
2022-10-22T09:22:59.241Z,151232.59
2022-10-22T09:24:09.871Z,151357.25
2022-10-22T09:25:22.249Z,151389.00
2022-10-22T09:26:26.071Z,151402.47
2022-10-22T09:27:30.836Z,151411.00
2022-10-22T09:28:33.039Z,151285.16
2022-10-22T09:29:35.173Z,151247.28
2022-10-22T09:30:39.173Z,151274.19
2022-10-22T09:31:41.330Z,151330.34
2022-10-22T09:32:43.777Z,151433.03
2022-10-22T09:33:49.030Z,151488.03
2022-10-22T09:34:58.126Z,151697.09
2022-10-22T09:36:03.638Z,151676.34
2022-10-22T09:37:09.697Z,151743.63
2022-10-22T09:38:14.156Z,151940.56
2022-10-22T09:39:25.793Z,151920.97
2022-10-22T09:40:28.024Z,151900.22
2022-10-22T09:41:30.381Z,151991.94
2022-10-22T09:42:34.907Z,152071.53
2022-10-22T09:43:37.137Z,151856.09
2022-10-22T09:44:39.332Z,151831.69
2022-10-22T09:45:43.005Z,151944.22
2022-10-22T09:46:46.026Z,151974.81
2022-10-22T09:48:03.741Z,151848.78
2022-10-22T09:49:15.190Z,151605.44
2022-10-22T09:50:26.936Z,151801.09
2022-10-22T09:51:54.799Z,151741.19
2022-10-22T09:53:12.448Z,151853.66
2022-10-22T09:54:20.787Z,151545.50
2022-10-22T09:55:25.075Z,151790.06
2022-10-22T09:56:41.745Z,151929.53
2022-10-22T09:57:44.559Z,151850.00
2022-10-22T09:58:51.084Z,151743.63
2022-10-22T09:59:57.423Z,151335.22
2022-10-22T10:01:01.246Z,151367.00
2022-10-22T10:02:33.537Z,151418.38
2022-10-22T10:03:35.709Z,151363.34
2022-10-22T10:04:46.957Z,151524.69
2022-10-22T10:05:53.195Z,151440.41
2022-10-22T10:06:56.577Z,151601.78
2022-10-22T10:08:02.344Z,151543.03
2022-10-22T10:09:15.771Z,151257.06
2022-10-22T10:10:27.814Z,151145.91
2022-10-22T10:11:44.797Z,151065.25
2022-10-22T10:13:13.622Z,151171.50
2022-10-22T10:14:29.365Z,151362.13
2022-10-22T10:15:55.031Z,151271.75
2022-10-22T10:17:05.079Z,151133.66
2022-10-22T10:18:16.198Z,151000.53
2022-10-22T10:19:51.971Z,151039.59
2022-10-22T10:21:18.915Z,151059.13
2022-10-22T10:22:48.666Z,150911.41
2022-10-22T10:24:12.329Z,151042.06
2022-10-22T10:25:20.777Z,151166.63
2022-10-22T10:26:28.415Z,151227.72
2022-10-22T10:27:37.947Z,151387.78
2022-10-22T10:29:10.722Z,151530.78
2022-10-22T10:30:17.302Z,151560.13
2022-10-22T10:31:48.358Z,151680.00
2022-10-22T10:32:53.815Z,151272.97
2022-10-22T10:34:14.639Z,151609.09
2022-10-22T10:35:16.710Z,151627.41
2022-10-22T10:36:32.130Z,151801.09
2022-10-22T10:37:46.117Z,151369.50
2022-10-22T10:39:06.647Z,151633.56
2022-10-22T10:40:17.482Z,151501.50
2022-10-22T10:41:25.048Z,151675.09
2022-10-22T10:42:36.601Z,151462.34
2022-10-22T10:43:44.411Z,151499.00
2022-10-22T10:44:52.975Z,151593.19
2022-10-22T10:46:19.802Z,151746.06
2022-10-22T10:47:43.431Z,151670.22
2022-10-22T10:49:00.300Z,151902.66
2022-10-22T10:50:22.690Z,151816.97
2022-10-22T10:51:30.660Z,151545.50
2022-10-22T10:52:43.932Z,151792.50
2022-10-22T10:53:59.188Z,152025.00
2022-10-22T10:55:19.868Z,151842.66
2022-10-22T10:56:44.660Z,151839.00
2022-10-22T10:57:56.154Z,151748.50
2022-10-22T10:59:16.928Z,151340.16
2022-10-22T11:00:20.082Z,151626.19
2022-10-22T11:01:36.957Z,151726.47
2022-10-22T11:02:57.737Z,152051.94
2022-10-22T11:04:11.700Z,152091.06
2022-10-22T11:05:25.945Z,152127.81
2022-10-22T11:06:32.719Z,152442.53
2022-10-22T11:07:57.026Z,152318.81
2022-10-22T11:09:05.402Z,152449.84
2022-10-22T11:10:27.900Z,152137.59
2022-10-22T11:11:36.369Z,151887.97
2022-10-22T11:12:44.571Z,151987.03
2022-10-22T11:13:55.740Z,152083.75
2022-10-22T11:15:09.549Z,152066.63
2022-10-22T11:16:17.813Z,152240.44
2022-10-22T11:17:23.058Z,152193.94
2022-10-22T11:18:33.071Z,152104.56
2022-10-22T11:19:51.695Z,152081.28
2022-10-22T11:21:33.690Z,151587.06
2022-10-22T11:23:16.836Z,151433.03
2022-10-22T11:24:26.041Z,151149.56
2022-10-22T11:25:39.656Z,151020.09
2022-10-22T11:26:50.238Z,150888.22
2022-10-22T11:28:03.166Z,150857.69
2022-10-22T11:29:18.660Z,150884.53
2022-10-22T11:30:24.011Z,150929.75
2022-10-22T11:31:26.677Z,151034.72
2022-10-22T11:32:30.397Z,151125.13
2022-10-22T11:34:04.874Z,151191.06
2022-10-22T11:35:26.594Z,151382.91
2022-10-22T11:37:39.195Z,151292.50
2022-10-22T11:38:41.910Z,151357.25
2022-10-22T11:39:47.544Z,151384.13
2022-10-22T11:41:16.986Z,151491.69
2022-10-22T11:42:38.185Z,151364.56
2022-10-22T11:43:58.671Z,151462.34
2022-10-22T11:45:05.344Z,151413.50
2022-10-22T11:46:16.838Z,151214.28
2022-10-22T11:48:02.252Z,151222.81
2022-10-22T11:49:41.297Z,151271.75
2022-10-22T11:50:54.994Z,151220.38
2022-10-22T11:52:24.181Z,151224.03
2022-10-22T11:53:30.877Z,151068.91
2022-10-22T11:54:54.083Z,150983.47
2022-10-22T11:55:59.794Z,150865.00
2022-10-22T11:57:16.927Z,150801.53
2022-10-22T11:58:50.703Z,150729.53
2022-10-22T12:00:00.855Z,150863.78
2022-10-22T12:01:02.961Z,150712.47
2022-10-22T12:02:24.381Z,150905.28
2022-10-22T12:03:32.559Z,150840.59
2022-10-22T12:04:42.369Z,150758.84
2022-10-22T12:05:45.846Z,150785.72
2022-10-22T12:07:01.859Z,150771.03
2022-10-22T12:08:17.374Z,150858.91
2022-10-22T12:09:20.327Z,150827.19
2022-10-22T12:10:27.454Z,150800.31
2022-10-22T12:11:37.362Z,150717.34
2022-10-22T12:12:40.340Z,150625.84
2022-10-22T12:14:20.192Z,150755.19
2022-10-22T12:15:28.969Z,150783.25
2022-10-22T12:16:54.742Z,150712.47
2022-10-22T12:18:02.296Z,150673.38
2022-10-22T12:19:27.475Z,150522.13
2022-10-22T12:20:29.870Z,150462.38
2022-10-22T12:21:33.935Z,150552.63
2022-10-22T12:22:37.894Z,150478.19
2022-10-22T12:23:40.219Z,150353.84
2022-10-22T12:24:46.746Z,150407.50
2022-10-22T12:25:48.870Z,150324.56
2022-10-22T12:26:52.639Z,150288.00
2022-10-22T12:27:58.208Z,123756.28
2022-10-22T12:29:10.676Z,92344.03
2022-10-22T12:30:34.640Z,67445.72
2022-10-22T12:31:38.894Z,50421.34
2022-10-22T12:32:41.492Z,31146.19
2022-10-22T12:33:44.153Z,25859.38
2022-10-22T12:35:57.545Z,20911.47
2022-10-22T12:36:59.701Z,14306.78
2022-10-22T12:38:08.375Z,11014.19
2022-10-22T12:39:20.060Z,6073.75
2022-10-22T12:40:27.414Z,13976.66
2022-10-22T12:41:34.645Z,8709.09
2022-10-22T12:42:38.108Z,9693.06
2022-10-22T12:43:40.307Z,10022.16
2022-10-22T12:44:44.553Z,7389.50
2022-10-22T12:45:49.299Z,4756.06
2022-10-22T12:46:54.521Z,11008.31
2022-10-22T12:48:02.091Z,5742.47
2022-10-22T12:49:14.038Z,6072.06
2022-10-22T12:50:20.458Z,3110.88
2022-10-22T12:51:22.750Z,3768.28
2022-10-22T12:52:26.090Z,1138.75